sensor_id;sensor_type;location;lat;lon;timestamp;P1;durP1;ratioP1;P2;durP2;ratioP2
25381;SDS011;16307;42.896;20.874;2024-01-07T00:01:11;21.38;;;6.90;;
25381;SDS011;16307;42.896;20.874;2024-01-07T00:03:57;15.05;;;6.50;;
25381;SDS011;16307;42.896;20.874;2024-01-07T00:06:43;10.80;;;5.25;;
25381;SDS011;16307;42.896;20.874;2024-01-07T00:09:30;9.80;;;4.88;;
25381;SDS011;16307;42.896;20.874;2024-01-07T00:12:16;11.90;;;5.97;;
25381;SDS011;16307;42.896;20.874;2024-01-07T00:15:03;16.85;;;6.13;;
25381;SDS011;16307;42.896;20.874;2024-01-07T00:17:49;11.63;;;6.00;;
25381;SDS011;16307;42.896;20.874;2024-01-07T00:20:35;12.70;;;5.72;;
25381;SDS011;16307;42.896;20.874;2024-01-07T00:23:21;15.52;;;5.88;;
25381;SDS011;16307;42.896;20.874;2024-01-07T00:26:09;17.95;;;4.95;;
25381;SDS011;16307;42.896;20.874;2024-01-07T00:28:56;12.43;;;4.60;;
25381;SDS011;16307;42.896;20.874;2024-01-07T00:31:42;16.85;;;6.70;;
25381;SDS011;16307;42.896;20.874;2024-01-07T00:34:28;13.88;;;6.65;;
25381;SDS011;16307;42.896;20.874;2024-01-07T00:37:15;16.45;;;7.57;;
25381;SDS011;16307;42.896;20.874;2024-01-07T00:40:01;16.20;;;8.23;;
25381;SDS011;16307;42.896;20.874;2024-01-07T00:42:48;13.55;;;7.45;;
25381;SDS011;16307;42.896;20.874;2024-01-07T00:45:34;15.70;;;7.40;;
25381;SDS011;16307;42.896;20.874;2024-01-07T00:48:21;17.83;;;8.10;;
25381;SDS011;16307;42.896;20.874;2024-01-07T00:51:08;15.63;;;7.43;;
25381;SDS011;16307;42.896;20.874;2024-01-07T00:53:55;11.02;;;6.38;;
25381;SDS011;16307;42.896;20.874;2024-01-07T00:56:41;13.65;;;6.40;;
25381;SDS011;16307;42.896;20.874;2024-01-07T00:59:28;11.70;;;5.00;;
25381;SDS011;16307;42.896;20.874;2024-01-07T01:02:18;11.40;;;4.30;;
25381;SDS011;16307;42.896;20.874;2024-01-07T01:05:05;12.98;;;4.95;;
25381;SDS011;16307;42.896;20.874;2024-01-07T01:07:52;14.70;;;4.47;;
25381;SDS011;16307;42.896;20.874;2024-01-07T01:10:39;11.93;;;4.13;;
25381;SDS011;16307;42.896;20.874;2024-01-07T01:13:25;13.25;;;4.20;;
25381;SDS011;16307;42.896;20.874;2024-01-07T01:16:11;11.05;;;3.90;;
25381;SDS011;16307;42.896;20.874;2024-01-07T01:18:57;12.73;;;4.68;;
25381;SDS011;16307;42.896;20.874;2024-01-07T01:21:43;14.20;;;4.18;;
25381;SDS011;16307;42.896;20.874;2024-01-07T01:24:29;12.15;;;5.47;;
25381;SDS011;16307;42.896;20.874;2024-01-07T01:27:15;10.77;;;4.88;;
25381;SDS011;16307;42.896;20.874;2024-01-07T01:30:02;13.52;;;5.32;;
25381;SDS011;16307;42.896;20.874;2024-01-07T01:32:49;10.93;;;5.22;;
25381;SDS011;16307;42.896;20.874;2024-01-07T01:35:35;14.02;;;5.10;;
25381;SDS011;16307;42.896;20.874;2024-01-07T01:38:21;12.88;;;5.28;;
25381;SDS011;16307;42.896;20.874;2024-01-07T01:41:07;13.32;;;5.53;;
25381;SDS011;16307;42.896;20.874;2024-01-07T01:43:56;12.10;;;5.65;;
25381;SDS011;16307;42.896;20.874;2024-01-07T01:46:46;14.90;;;5.13;;
25381;SDS011;16307;42.896;20.874;2024-01-07T01:49:33;15.07;;;5.78;;
25381;SDS011;16307;42.896;20.874;2024-01-07T01:52:21;15.55;;;6.38;;
25381;SDS011;16307;42.896;20.874;2024-01-07T01:55:08;11.65;;;5.50;;
25381;SDS011;16307;42.896;20.874;2024-01-07T01:57:54;11.15;;;4.65;;
25381;SDS011;16307;42.896;20.874;2024-01-07T02:00:42;9.13;;;5.05;;
25381;SDS011;16307;42.896;20.874;2024-01-07T02:03:29;13.55;;;5.35;;
25381;SDS011;16307;42.896;20.874;2024-01-07T02:06:15;10.18;;;4.88;;
25381;SDS011;16307;42.896;20.874;2024-01-07T02:09:02;14.73;;;5.63;;
25381;SDS011;16307;42.896;20.874;2024-01-07T02:12:02;11.60;;;5.38;;
25381;SDS011;16307;42.896;20.874;2024-01-07T02:14:49;11.93;;;5.35;;
25381;SDS011;16307;42.896;20.874;2024-01-07T02:17:36;20.40;;;6.25;;
25381;SDS011;16307;42.896;20.874;2024-01-07T02:20:23;14.82;;;5.57;;
25381;SDS011;16307;42.896;20.874;2024-01-07T02:23:11;11.57;;;5.43;;
25381;SDS011;16307;42.896;20.874;2024-01-07T02:25:57;13.77;;;5.18;;
25381;SDS011;16307;42.896;20.874;2024-01-07T02:28:42;9.27;;;4.80;;
25381;SDS011;16307;42.896;20.874;2024-01-07T02:31:28;10.27;;;4.55;;
25381;SDS011;16307;42.896;20.874;2024-01-07T02:34:15;8.20;;;4.40;;
25381;SDS011;16307;42.896;20.874;2024-01-07T02:37:02;4.90;;;2.65;;
25381;SDS011;16307;42.896;20.874;2024-01-07T02:39:48;6.97;;;2.53;;
25381;SDS011;16307;42.896;20.874;2024-01-07T02:42:44;6.00;;;2.35;;
25381;SDS011;16307;42.896;20.874;2024-01-07T02:45:30;6.70;;;2.47;;
25381;SDS011;16307;42.896;20.874;2024-01-07T02:48:16;2.88;;;1.80;;
25381;SDS011;16307;42.896;20.874;2024-01-07T02:51:02;9.57;;;3.20;;
25381;SDS011;16307;42.896;20.874;2024-01-07T02:53:51;7.28;;;3.67;;
25381;SDS011;16307;42.896;20.874;2024-01-07T02:56:37;8.68;;;3.80;;
25381;SDS011;16307;42.896;20.874;2024-01-07T02:59:23;10.13;;;4.63;;
25381;SDS011;16307;42.896;20.874;2024-01-07T03:02:09;7.70;;;4.50;;
25381;SDS011;16307;42.896;20.874;2024-01-07T03:04:55;11.07;;;5.22;;
25381;SDS011;16307;42.896;20.874;2024-01-07T03:07:41;9.73;;;3.97;;
25381;SDS011;16307;42.896;20.874;2024-01-07T03:10:27;8.98;;;4.10;;
25381;SDS011;16307;42.896;20.874;2024-01-07T03:13:12;8.52;;;3.70;;
25381;SDS011;16307;42.896;20.874;2024-01-07T03:15:59;6.90;;;3.40;;
25381;SDS011;16307;42.896;20.874;2024-01-07T03:18:45;10.02;;;3.40;;
25381;SDS011;16307;42.896;20.874;2024-01-07T03:21:32;9.00;;;3.00;;
25381;SDS011;16307;42.896;20.874;2024-01-07T03:24:18;13.48;;;4.03;;
25381;SDS011;16307;42.896;20.874;2024-01-07T03:27:04;9.20;;;4.13;;
25381;SDS011;16307;42.896;20.874;2024-01-07T03:29:50;9.88;;;4.50;;
25381;SDS011;16307;42.896;20.874;2024-01-07T03:32:37;11.80;;;4.05;;
25381;SDS011;16307;42.896;20.874;2024-01-07T03:35:23;8.60;;;4.53;;
25381;SDS011;16307;42.896;20.874;2024-01-07T03:38:09;8.02;;;4.05;;
25381;SDS011;16307;42.896;20.874;2024-01-07T03:40:55;8.77;;;3.55;;
25381;SDS011;16307;42.896;20.874;2024-01-07T03:43:41;10.07;;;4.10;;
25381;SDS011;16307;42.896;20.874;2024-01-07T03:46:27;9.93;;;3.80;;
25381;SDS011;16307;42.896;20.874;2024-01-07T03:49:14;9.82;;;3.70;;
25381;SDS011;16307;42.896;20.874;2024-01-07T03:52:00;8.10;;;4.05;;
25381;SDS011;16307;42.896;20.874;2024-01-07T03:54:46;8.68;;;4.35;;
25381;SDS011;16307;42.896;20.874;2024-01-07T03:57:32;8.52;;;4.35;;
25381;SDS011;16307;42.896;20.874;2024-01-07T04:00:19;10.05;;;5.05;;
25381;SDS011;16307;42.896;20.874;2024-01-07T04:03:05;57.50;;;25.02;;
25381;SDS011;16307;42.896;20.874;2024-01-07T04:05:52;12.60;;;6.35;;
25381;SDS011;16307;42.896;20.874;2024-01-07T04:08:38;13.77;;;5.93;;
25381;SDS011;16307;42.896;20.874;2024-01-07T04:11:24;19.00;;;7.55;;
25381;SDS011;16307;42.896;20.874;2024-01-07T04:14:09;8.63;;;5.13;;
25381;SDS011;16307;42.896;20.874;2024-01-07T04:16:55;10.57;;;5.60;;
25381;SDS011;16307;42.896;20.874;2024-01-07T04:19:42;13.27;;;5.22;;
25381;SDS011;16307;42.896;20.874;2024-01-07T04:22:28;12.70;;;5.45;;
25381;SDS011;16307;42.896;20.874;2024-01-07T04:25:14;9.35;;;4.85;;
25381;SDS011;16307;42.896;20.874;2024-01-07T04:28:00;9.57;;;5.03;;
25381;SDS011;16307;42.896;20.874;2024-01-07T04:30:46;8.38;;;5.07;;
25381;SDS011;16307;42.896;20.874;2024-01-07T04:33:35;8.75;;;5.38;;
25381;SDS011;16307;42.896;20.874;2024-01-07T04:36:21;8.30;;;4.90;;
25381;SDS011;16307;42.896;20.874;2024-01-07T04:39:07;14.65;;;5.70;;
25381;SDS011;16307;42.896;20.874;2024-01-07T04:41:53;9.85;;;5.47;;
25381;SDS011;16307;42.896;20.874;2024-01-07T04:44:39;10.43;;;5.38;;
25381;SDS011;16307;42.896;20.874;2024-01-07T04:47:29;10.82;;;6.15;;
25381;SDS011;16307;42.896;20.874;2024-01-07T04:50:16;10.05;;;5.40;;
25381;SDS011;16307;42.896;20.874;2024-01-07T04:53:05;8.13;;;5.05;;
25381;SDS011;16307;42.896;20.874;2024-01-07T04:55:51;8.90;;;5.63;;
25381;SDS011;16307;42.896;20.874;2024-01-07T04:58:37;11.50;;;5.03;;
25381;SDS011;16307;42.896;20.874;2024-01-07T05:01:23;9.98;;;5.57;;
25381;SDS011;16307;42.896;20.874;2024-01-07T05:04:09;13.32;;;6.97;;
25381;SDS011;16307;42.896;20.874;2024-01-07T05:06:56;16.27;;;8.30;;
25381;SDS011;16307;42.896;20.874;2024-01-07T05:09:42;14.52;;;7.38;;
25381;SDS011;16307;42.896;20.874;2024-01-07T05:12:28;22.23;;;10.85;;
25381;SDS011;16307;42.896;20.874;2024-01-07T05:15:14;20.05;;;10.25;;
25381;SDS011;16307;42.896;20.874;2024-01-07T05:18:00;16.58;;;7.38;;
25381;SDS011;16307;42.896;20.874;2024-01-07T05:20:47;9.77;;;5.53;;
25381;SDS011;16307;42.896;20.874;2024-01-07T05:23:33;10.88;;;6.07;;
25381;SDS011;16307;42.896;20.874;2024-01-07T05:26:19;9.65;;;5.72;;
25381;SDS011;16307;42.896;20.874;2024-01-07T05:29:06;12.90;;;6.23;;
25381;SDS011;16307;42.896;20.874;2024-01-07T05:31:52;15.00;;;7.65;;
25381;SDS011;16307;42.896;20.874;2024-01-07T05:34:38;15.23;;;7.43;;
25381;SDS011;16307;42.896;20.874;2024-01-07T05:37:25;17.45;;;7.82;;
25381;SDS011;16307;42.896;20.874;2024-01-07T05:40:11;12.23;;;7.13;;
25381;SDS011;16307;42.896;20.874;2024-01-07T05:42:57;18.85;;;8.15;;
25381;SDS011;16307;42.896;20.874;2024-01-07T05:45:44;17.27;;;9.23;;
25381;SDS011;16307;42.896;20.874;2024-01-07T05:48:40;14.95;;;8.30;;
25381;SDS011;16307;42.896;20.874;2024-01-07T05:51:30;16.27;;;8.30;;
25381;SDS011;16307;42.896;20.874;2024-01-07T05:54:16;15.10;;;8.38;;
25381;SDS011;16307;42.896;20.874;2024-01-07T05:57:02;19.65;;;9.05;;
25381;SDS011;16307;42.896;20.874;2024-01-07T05:59:48;12.50;;;7.47;;
25381;SDS011;16307;42.896;20.874;2024-01-07T06:02:39;16.73;;;10.07;;
25381;SDS011;16307;42.896;20.874;2024-01-07T06:05:26;12.30;;;8.13;;
25381;SDS011;16307;42.896;20.874;2024-01-07T06:08:12;12.18;;;7.45;;
25381;SDS011;16307;42.896;20.874;2024-01-07T06:10:58;15.57;;;7.40;;
25381;SDS011;16307;42.896;20.874;2024-01-07T06:13:45;16.85;;;9.18;;
25381;SDS011;16307;42.896;20.874;2024-01-07T06:16:31;18.27;;;8.95;;
25381;SDS011;16307;42.896;20.874;2024-01-07T06:19:17;21.48;;;11.10;;
25381;SDS011;16307;42.896;20.874;2024-01-07T06:22:04;15.68;;;9.15;;
25381;SDS011;16307;42.896;20.874;2024-01-07T06:24:50;17.08;;;10.18;;
25381;SDS011;16307;42.896;20.874;2024-01-07T06:27:38;15.60;;;9.65;;
25381;SDS011;16307;42.896;20.874;2024-01-07T06:30:24;14.98;;;8.68;;
25381;SDS011;16307;42.896;20.874;2024-01-07T06:33:11;16.65;;;9.90;;
25381;SDS011;16307;42.896;20.874;2024-01-07T06:35:59;22.67;;;11.30;;
25381;SDS011;16307;42.896;20.874;2024-01-07T06:38:46;47.92;;;20.83;;
25381;SDS011;16307;42.896;20.874;2024-01-07T06:41:32;27.00;;;14.95;;
25381;SDS011;16307;42.896;20.874;2024-01-07T06:44:18;35.25;;;17.60;;
25381;SDS011;16307;42.896;20.874;2024-01-07T06:47:04;29.00;;;15.50;;
25381;SDS011;16307;42.896;20.874;2024-01-07T06:49:50;27.33;;;15.68;;
25381;SDS011;16307;42.896;20.874;2024-01-07T06:52:37;19.63;;;13.15;;
25381;SDS011;16307;42.896;20.874;2024-01-07T06:55:23;27.52;;;13.20;;
25381;SDS011;16307;42.896;20.874;2024-01-07T06:58:09;28.70;;;15.07;;
25381;SDS011;16307;42.896;20.874;2024-01-07T07:00:56;21.15;;;11.98;;
25381;SDS011;16307;42.896;20.874;2024-01-07T07:03:42;20.42;;;11.73;;
25381;SDS011;16307;42.896;20.874;2024-01-07T07:06:28;19.45;;;11.35;;
25381;SDS011;16307;42.896;20.874;2024-01-07T07:09:14;22.45;;;12.20;;
25381;SDS011;16307;42.896;20.874;2024-01-07T07:12:00;16.48;;;10.43;;
25381;SDS011;16307;42.896;20.874;2024-01-07T07:14:46;15.32;;;9.40;;
25381;SDS011;16307;42.896;20.874;2024-01-07T07:17:32;15.30;;;9.63;;
25381;SDS011;16307;42.896;20.874;2024-01-07T07:20:18;16.00;;;9.68;;
25381;SDS011;16307;42.896;20.874;2024-01-07T07:23:05;20.08;;;9.13;;
25381;SDS011;16307;42.896;20.874;2024-01-07T07:25:51;13.57;;;7.75;;
25381;SDS011;16307;42.896;20.874;2024-01-07T07:28:37;15.15;;;8.48;;
25381;SDS011;16307;42.896;20.874;2024-01-07T07:31:23;18.27;;;11.07;;
25381;SDS011;16307;42.896;20.874;2024-01-07T07:34:09;18.42;;;10.40;;
25381;SDS011;16307;42.896;20.874;2024-01-07T07:36:58;25.38;;;13.60;;
25381;SDS011;16307;42.896;20.874;2024-01-07T07:39:44;31.98;;;17.35;;
25381;SDS011;16307;42.896;20.874;2024-01-07T07:42:30;26.75;;;14.13;;
25381;SDS011;16307;42.896;20.874;2024-01-07T07:45:16;38.58;;;11.90;;
25381;SDS011;16307;42.896;20.874;2024-01-07T07:48:02;30.63;;;10.60;;
25381;SDS011;16307;42.896;20.874;2024-01-07T07:50:49;28.52;;;9.38;;
25381;SDS011;16307;42.896;20.874;2024-01-07T07:53:37;28.45;;;9.98;;
25381;SDS011;16307;42.896;20.874;2024-01-07T07:56:25;27.60;;;6.93;;
25381;SDS011;16307;42.896;20.874;2024-01-07T07:59:11;18.92;;;5.50;;
25381;SDS011;16307;42.896;20.874;2024-01-07T08:01:57;19.85;;;5.03;;
25381;SDS011;16307;42.896;20.874;2024-01-07T08:04:43;15.25;;;4.90;;
25381;SDS011;16307;42.896;20.874;2024-01-07T08:07:30;21.55;;;6.53;;
25381;SDS011;16307;42.896;20.874;2024-01-07T08:10:15;26.70;;;5.90;;
25381;SDS011;16307;42.896;20.874;2024-01-07T08:13:01;23.48;;;5.30;;
25381;SDS011;16307;42.896;20.874;2024-01-07T08:15:47;19.35;;;6.20;;
25381;SDS011;16307;42.896;20.874;2024-01-07T08:18:33;25.20;;;6.22;;
25381;SDS011;16307;42.896;20.874;2024-01-07T08:21:19;22.45;;;5.70;;
25381;SDS011;16307;42.896;20.874;2024-01-07T08:24:05;25.15;;;6.32;;
25381;SDS011;16307;42.896;20.874;2024-01-07T08:26:52;9.45;;;4.45;;
25381;SDS011;16307;42.896;20.874;2024-01-07T08:29:38;10.13;;;4.22;;
25381;SDS011;16307;42.896;20.874;2024-01-07T08:32:23;12.27;;;4.90;;
25381;SDS011;16307;42.896;20.874;2024-01-07T08:35:10;14.32;;;4.97;;
25381;SDS011;16307;42.896;20.874;2024-01-07T08:37:55;14.23;;;6.03;;
25381;SDS011;16307;42.896;20.874;2024-01-07T08:40:41;12.93;;;5.95;;
25381;SDS011;16307;42.896;20.874;2024-01-07T08:43:27;13.90;;;6.50;;
25381;SDS011;16307;42.896;20.874;2024-01-07T08:46:13;18.73;;;7.90;;
25381;SDS011;16307;42.896;20.874;2024-01-07T08:49:00;21.45;;;7.38;;
25381;SDS011;16307;42.896;20.874;2024-01-07T08:51:48;23.70;;;8.40;;
25381;SDS011;16307;42.896;20.874;2024-01-07T08:54:34;18.58;;;7.15;;
25381;SDS011;16307;42.896;20.874;2024-01-07T08:57:20;18.60;;;7.07;;
25381;SDS011;16307;42.896;20.874;2024-01-07T09:00:06;17.95;;;6.85;;
25381;SDS011;16307;42.896;20.874;2024-01-07T09:02:53;15.27;;;6.07;;
25381;SDS011;16307;42.896;20.874;2024-01-07T09:05:39;15.68;;;6.90;;
25381;SDS011;16307;42.896;20.874;2024-01-07T09:08:25;14.63;;;6.50;;
25381;SDS011;16307;42.896;20.874;2024-01-07T09:11:11;19.27;;;8.80;;
25381;SDS011;16307;42.896;20.874;2024-01-07T09:13:58;16.30;;;8.88;;
25381;SDS011;16307;42.896;20.874;2024-01-07T09:16:45;20.27;;;10.70;;
25381;SDS011;16307;42.896;20.874;2024-01-07T09:19:31;19.95;;;9.57;;
25381;SDS011;16307;42.896;20.874;2024-01-07T09:22:17;17.92;;;8.50;;
25381;SDS011;16307;42.896;20.874;2024-01-07T09:25:03;16.58;;;7.68;;
25381;SDS011;16307;42.896;20.874;2024-01-07T09:27:50;17.10;;;7.47;;
25381;SDS011;16307;42.896;20.874;2024-01-07T09:30:36;19.08;;;8.02;;
25381;SDS011;16307;42.896;20.874;2024-01-07T09:33:23;17.02;;;7.22;;
25381;SDS011;16307;42.896;20.874;2024-01-07T09:36:09;19.52;;;6.60;;
25381;SDS011;16307;42.896;20.874;2024-01-07T09:39:05;28.92;;;9.35;;
25381;SDS011;16307;42.896;20.874;2024-01-07T09:41:52;22.98;;;8.60;;
25381;SDS011;16307;42.896;20.874;2024-01-07T09:44:38;19.38;;;6.85;;
25381;SDS011;16307;42.896;20.874;2024-01-07T09:47:24;30.85;;;6.53;;
25381;SDS011;16307;42.896;20.874;2024-01-07T09:50:11;25.90;;;6.30;;
25381;SDS011;16307;42.896;20.874;2024-01-07T09:52:57;21.40;;;5.07;;
25381;SDS011;16307;42.896;20.874;2024-01-07T09:56:03;30.45;;;6.90;;
25381;SDS011;16307;42.896;20.874;2024-01-07T09:59:08;22.88;;;6.25;;
25381;SDS011;16307;42.896;20.874;2024-01-07T10:01:55;24.13;;;7.03;;
25381;SDS011;16307;42.896;20.874;2024-01-07T10:04:41;25.15;;;8.68;;
25381;SDS011;16307;42.896;20.874;2024-01-07T10:07:28;29.52;;;9.88;;
25381;SDS011;16307;42.896;20.874;2024-01-07T10:10:15;20.45;;;5.43;;
25381;SDS011;16307;42.896;20.874;2024-01-07T10:13:02;17.20;;;4.82;;
25381;SDS011;16307;42.896;20.874;2024-01-07T10:15:48;19.88;;;4.32;;
25381;SDS011;16307;42.896;20.874;2024-01-07T10:18:35;15.93;;;5.35;;
25381;SDS011;16307;42.896;20.874;2024-01-07T10:21:22;13.50;;;4.05;;
25381;SDS011;16307;42.896;20.874;2024-01-07T10:24:08;16.08;;;4.43;;
25381;SDS011;16307;42.896;20.874;2024-01-07T10:26:58;12.95;;;3.63;;
25381;SDS011;16307;42.896;20.874;2024-01-07T10:29:46;18.77;;;6.22;;
25381;SDS011;16307;42.896;20.874;2024-01-07T10:32:36;18.45;;;4.22;;
25381;SDS011;16307;42.896;20.874;2024-01-07T10:35:35;15.35;;;5.45;;
25381;SDS011;16307;42.896;20.874;2024-01-07T10:38:23;16.05;;;5.57;;
25381;SDS011;16307;42.896;20.874;2024-01-07T10:41:09;14.35;;;5.82;;
25381;SDS011;16307;42.896;20.874;2024-01-07T10:43:57;13.02;;;4.32;;
25381;SDS011;16307;42.896;20.874;2024-01-07T10:46:43;17.33;;;4.85;;
25381;SDS011;16307;42.896;20.874;2024-01-07T10:49:31;15.90;;;6.55;;
25381;SDS011;16307;42.896;20.874;2024-01-07T10:52:17;13.60;;;5.32;;
25381;SDS011;16307;42.896;20.874;2024-01-07T10:55:08;16.25;;;6.97;;
25381;SDS011;16307;42.896;20.874;2024-01-07T10:57:55;13.20;;;4.72;;
25381;SDS011;16307;42.896;20.874;2024-01-07T11:00:43;21.38;;;5.90;;
25381;SDS011;16307;42.896;20.874;2024-01-07T11:03:51;30.95;;;5.85;;
25381;SDS011;16307;42.896;20.874;2024-01-07T11:06:51;34.45;;;6.85;;
25381;SDS011;16307;42.896;20.874;2024-01-07T11:12:38;27.02;;;5.70;;
25381;SDS011;16307;42.896;20.874;2024-01-07T11:18:38;22.42;;;4.75;;
25381;SDS011;16307;42.896;20.874;2024-01-07T11:21:25;20.05;;;4.53;;
25381;SDS011;16307;42.896;20.874;2024-01-07T11:27:30;32.67;;;6.45;;
25381;SDS011;16307;42.896;20.874;2024-01-07T11:30:20;34.28;;;6.75;;
25381;SDS011;16307;42.896;20.874;2024-01-07T11:33:06;33.28;;;6.03;;
25381;SDS011;16307;42.896;20.874;2024-01-07T11:38:42;33.35;;;5.53;;
25381;SDS011;16307;42.896;20.874;2024-01-07T11:41:37;22.27;;;4.82;;
25381;SDS011;16307;42.896;20.874;2024-01-07T11:44:24;16.95;;;3.65;;
25381;SDS011;16307;42.896;20.874;2024-01-07T11:47:10;14.75;;;3.60;;
25381;SDS011;16307;42.896;20.874;2024-01-07T11:49:57;13.90;;;2.83;;
25381;SDS011;16307;42.896;20.874;2024-01-07T11:52:43;15.38;;;3.22;;
25381;SDS011;16307;42.896;20.874;2024-01-07T11:55:29;11.57;;;2.97;;
25381;SDS011;16307;42.896;20.874;2024-01-07T11:58:18;11.98;;;4.72;;
25381;SDS011;16307;42.896;20.874;2024-01-07T12:01:05;9.38;;;3.90;;
25381;SDS011;16307;42.896;20.874;2024-01-07T12:03:51;19.98;;;4.63;;
25381;SDS011;16307;42.896;20.874;2024-01-07T12:06:38;24.80;;;5.35;;
25381;SDS011;16307;42.896;20.874;2024-01-07T12:09:25;16.30;;;4.45;;
25381;SDS011;16307;42.896;20.874;2024-01-07T12:12:11;13.55;;;4.45;;
25381;SDS011;16307;42.896;20.874;2024-01-07T12:14:58;17.30;;;4.45;;
25381;SDS011;16307;42.896;20.874;2024-01-07T12:17:48;20.85;;;6.00;;
25381;SDS011;16307;42.896;20.874;2024-01-07T12:20:41;18.17;;;6.65;;
25381;SDS011;16307;42.896;20.874;2024-01-07T12:23:27;20.20;;;5.82;;
25381;SDS011;16307;42.896;20.874;2024-01-07T12:26:14;12.32;;;4.25;;
25381;SDS011;16307;42.896;20.874;2024-01-07T12:29:00;11.32;;;4.80;;
25381;SDS011;16307;42.896;20.874;2024-01-07T12:31:50;11.52;;;5.70;;
25381;SDS011;16307;42.896;20.874;2024-01-07T12:34:37;9.10;;;4.50;;
25381;SDS011;16307;42.896;20.874;2024-01-07T12:37:23;11.40;;;3.67;;
25381;SDS011;16307;42.896;20.874;2024-01-07T12:40:10;13.85;;;5.13;;
25381;SDS011;16307;42.896;20.874;2024-01-07T12:42:57;13.35;;;5.20;;
25381;SDS011;16307;42.896;20.874;2024-01-07T12:45:44;16.13;;;6.50;;
25381;SDS011;16307;42.896;20.874;2024-01-07T12:48:30;11.63;;;4.95;;
25381;SDS011;16307;42.896;20.874;2024-01-07T12:51:17;14.20;;;4.40;;
25381;SDS011;16307;42.896;20.874;2024-01-07T12:54:07;10.40;;;3.60;;
25381;SDS011;16307;42.896;20.874;2024-01-07T12:56:53;15.90;;;3.30;;
25381;SDS011;16307;42.896;20.874;2024-01-07T12:59:39;8.38;;;3.42;;
25381;SDS011;16307;42.896;20.874;2024-01-07T13:02:25;10.38;;;3.92;;
25381;SDS011;16307;42.896;20.874;2024-01-07T13:05:12;12.38;;;4.88;;
25381;SDS011;16307;42.896;20.874;2024-01-07T13:07:58;10.05;;;4.70;;
25381;SDS011;16307;42.896;20.874;2024-01-07T13:10:45;7.32;;;3.72;;
25381;SDS011;16307;42.896;20.874;2024-01-07T13:13:31;19.65;;;7.18;;
25381;SDS011;16307;42.896;20.874;2024-01-07T13:16:17;15.38;;;5.85;;
25381;SDS011;16307;42.896;20.874;2024-01-07T13:19:05;18.52;;;6.32;;
25381;SDS011;16307;42.896;20.874;2024-01-07T13:21:51;15.73;;;5.63;;
25381;SDS011;16307;42.896;20.874;2024-01-07T13:24:38;22.55;;;5.78;;
25381;SDS011;16307;42.896;20.874;2024-01-07T13:27:24;24.17;;;5.63;;
25381;SDS011;16307;42.896;20.874;2024-01-07T13:30:12;18.52;;;5.55;;
25381;SDS011;16307;42.896;20.874;2024-01-07T13:32:58;24.73;;;5.80;;
25381;SDS011;16307;42.896;20.874;2024-01-07T13:35:58;20.38;;;5.80;;
25381;SDS011;16307;42.896;20.874;2024-01-07T13:38:50;27.95;;;7.07;;
25381;SDS011;16307;42.896;20.874;2024-01-07T13:41:43;21.75;;;6.20;;
25381;SDS011;16307;42.896;20.874;2024-01-07T13:44:30;28.67;;;8.20;;
25381;SDS011;16307;42.896;20.874;2024-01-07T13:47:16;27.90;;;7.53;;
25381;SDS011;16307;42.896;20.874;2024-01-07T13:50:03;26.60;;;8.57;;
25381;SDS011;16307;42.896;20.874;2024-01-07T13:52:49;28.55;;;9.05;;
25381;SDS011;16307;42.896;20.874;2024-01-07T13:55:36;27.08;;;8.82;;
25381;SDS011;16307;42.896;20.874;2024-01-07T13:58:22;30.23;;;7.45;;
25381;SDS011;16307;42.896;20.874;2024-01-07T14:01:10;29.95;;;7.50;;
25381;SDS011;16307;42.896;20.874;2024-01-07T14:03:56;28.50;;;6.90;;
25381;SDS011;16307;42.896;20.874;2024-01-07T14:06:43;21.65;;;6.85;;
25381;SDS011;16307;42.896;20.874;2024-01-07T14:09:29;35.78;;;7.28;;
25381;SDS011;16307;42.896;20.874;2024-01-07T14:12:17;26.05;;;6.85;;
25381;SDS011;16307;42.896;20.874;2024-01-07T14:15:04;36.35;;;6.88;;
25381;SDS011;16307;42.896;20.874;2024-01-07T14:17:50;31.15;;;7.55;;
25381;SDS011;16307;42.896;20.874;2024-01-07T14:20:37;25.27;;;8.35;;
25381;SDS011;16307;42.896;20.874;2024-01-07T14:23:23;27.40;;;6.97;;
25381;SDS011;16307;42.896;20.874;2024-01-07T14:26:09;22.05;;;7.60;;
25381;SDS011;16307;42.896;20.874;2024-01-07T14:28:55;20.35;;;8.57;;
25381;SDS011;16307;42.896;20.874;2024-01-07T14:31:53;22.10;;;8.57;;
25381;SDS011;16307;42.896;20.874;2024-01-07T14:34:40;25.80;;;7.15;;
25381;SDS011;16307;42.896;20.874;2024-01-07T14:37:30;19.35;;;7.35;;
25381;SDS011;16307;42.896;20.874;2024-01-07T14:40:16;23.73;;;7.40;;
25381;SDS011;16307;42.896;20.874;2024-01-07T14:43:04;23.55;;;8.63;;
25381;SDS011;16307;42.896;20.874;2024-01-07T14:45:52;24.35;;;7.07;;
25381;SDS011;16307;42.896;20.874;2024-01-07T14:48:39;21.65;;;7.30;;
25381;SDS011;16307;42.896;20.874;2024-01-07T14:51:28;18.27;;;7.10;;
25381;SDS011;16307;42.896;20.874;2024-01-07T14:54:13;21.23;;;8.38;;
25381;SDS011;16307;42.896;20.874;2024-01-07T14:57:00;15.80;;;7.20;;
25381;SDS011;16307;42.896;20.874;2024-01-07T14:59:46;21.63;;;7.63;;
25381;SDS011;16307;42.896;20.874;2024-01-07T15:02:32;15.65;;;8.15;;
25381;SDS011;16307;42.896;20.874;2024-01-07T15:05:18;23.90;;;8.73;;
25381;SDS011;16307;42.896;20.874;2024-01-07T15:08:04;26.65;;;9.48;;
25381;SDS011;16307;42.896;20.874;2024-01-07T15:10:50;17.98;;;8.18;;
25381;SDS011;16307;42.896;20.874;2024-01-07T15:13:36;22.17;;;9.07;;
25381;SDS011;16307;42.896;20.874;2024-01-07T15:16:25;20.63;;;9.05;;
25381;SDS011;16307;42.896;20.874;2024-01-07T15:19:11;27.75;;;10.55;;
25381;SDS011;16307;42.896;20.874;2024-01-07T15:21:58;22.00;;;9.63;;
25381;SDS011;16307;42.896;20.874;2024-01-07T15:24:44;33.45;;;11.25;;
25381;SDS011;16307;42.896;20.874;2024-01-07T15:27:30;26.02;;;10.90;;
25381;SDS011;16307;42.896;20.874;2024-01-07T15:30:16;24.63;;;10.98;;
25381;SDS011;16307;42.896;20.874;2024-01-07T15:33:03;29.98;;;11.85;;
25381;SDS011;16307;42.896;20.874;2024-01-07T15:35:49;26.90;;;12.23;;
25381;SDS011;16307;42.896;20.874;2024-01-07T15:38:35;29.05;;;12.77;;
25381;SDS011;16307;42.896;20.874;2024-01-07T15:41:21;26.35;;;10.23;;
25381;SDS011;16307;42.896;20.874;2024-01-07T15:44:07;24.23;;;8.73;;
25381;SDS011;16307;42.896;20.874;2024-01-07T15:46:53;25.58;;;9.48;;
25381;SDS011;16307;42.896;20.874;2024-01-07T15:49:40;22.52;;;8.80;;
25381;SDS011;16307;42.896;20.874;2024-01-07T15:52:26;24.58;;;9.43;;
25381;SDS011;16307;42.896;20.874;2024-01-07T15:55:14;21.88;;;7.63;;
25381;SDS011;16307;42.896;20.874;2024-01-07T15:58:00;17.17;;;6.88;;
25381;SDS011;16307;42.896;20.874;2024-01-07T16:00:48;30.83;;;13.65;;
25381;SDS011;16307;42.896;20.874;2024-01-07T16:03:34;33.58;;;13.20;;
25381;SDS011;16307;42.896;20.874;2024-01-07T16:06:21;21.58;;;9.07;;
25381;SDS011;16307;42.896;20.874;2024-01-07T16:09:08;23.75;;;8.10;;
25381;SDS011;16307;42.896;20.874;2024-01-07T16:11:54;29.30;;;10.07;;
25381;SDS011;16307;42.896;20.874;2024-01-07T16:14:42;19.77;;;7.90;;
25381;SDS011;16307;42.896;20.874;2024-01-07T16:17:28;22.38;;;9.40;;
25381;SDS011;16307;42.896;20.874;2024-01-07T16:20:15;28.40;;;9.98;;
25381;SDS011;16307;42.896;20.874;2024-01-07T16:23:01;32.53;;;10.88;;
25381;SDS011;16307;42.896;20.874;2024-01-07T16:25:48;36.00;;;12.65;;
25381;SDS011;16307;42.896;20.874;2024-01-07T16:28:34;36.80;;;13.88;;